sensor_id;sensor_type;location;lat;lon;timestamp;pressure;altitude;pressure_sealevel;temperature;humidity
9261;BME280;4667;42.726;23.252;2023-10-19T08:01:05;94911.50;;;8.74;68.11
9261;BME280;4667;42.726;23.252;2023-10-19T08:03:32;95146.91;;;11.13;65.21
9261;BME280;4667;42.726;23.252;2023-10-19T08:06:00;95162.06;;;12.12;62.63
9261;BME280;4667;42.726;23.252;2023-10-19T08:08:28;95144.50;;;12.69;60.90
9261;BME280;4667;42.726;23.252;2023-10-19T08:10:59;95041.84;;;13.12;58.26
9261;BME280;4667;42.726;23.252;2023-10-19T08:13:26;95238.06;;;15.31;55.60
9261;BME280;4667;42.726;23.252;2023-10-19T08:15:53;95102.34;;;14.89;53.05
9261;BME280;4667;42.726;23.252;2023-10-19T08:18:22;94956.81;;;14.27;51.91
9261;BME280;4667;42.726;23.252;2023-10-19T08:20:50;95207.50;;;15.68;51.89
9261;BME280;4667;42.726;23.252;2023-10-19T08:23:19;95250.50;;;15.75;51.03
9261;BME280;4667;42.726;23.252;2023-10-19T08:25:49;95184.22;;;15.84;50.60
9261;BME280;4667;42.726;23.252;2023-10-19T08:28:16;95054.56;;;14.54;51.11
9261;BME280;4667;42.726;23.252;2023-10-19T08:30:44;95173.72;;;15.69;50.37
9261;BME280;4667;42.726;23.252;2023-10-19T08:33:23;95160.09;;;15.75;50.26
9261;BME280;4667;42.726;23.252;2023-10-19T08:35:52;95188.09;;;16.21;49.38
9261;BME280;4667;42.726;23.252;2023-10-19T08:38:33;94988.56;;;15.06;49.29
9261;BME280;4667;42.726;23.252;2023-10-19T08:41:10;95243.41;;;16.48;48.68
9261;BME280;4667;42.726;23.252;2023-10-19T08:43:37;95166.44;;;15.79;49.15
9261;BME280;4667;42.726;23.252;2023-10-19T08:46:05;95112.59;;;15.34;49.95
9261;BME280;4667;42.726;23.252;2023-10-19T08:48:35;95252.78;;;16.16;50.20
9261;BME280;4667;42.726;23.252;2023-10-19T08:51:08;95246.69;;;16.40;49.14
9261;BME280;4667;42.726;23.252;2023-10-19T08:53:37;95060.31;;;15.01;48.90
9261;BME280;4667;42.726;23.252;2023-10-19T08:56:06;95244.81;;;16.16;48.95
9261;BME280;4667;42.726;23.252;2023-10-19T08:58:34;95234.63;;;16.23;48.81
9261;BME280;4667;42.726;23.252;2023-10-19T09:01:01;95109.88;;;15.74;48.07
9261;BME280;4667;42.726;23.252;2023-10-19T09:03:32;95180.09;;;16.21;48.01
9261;BME280;4667;42.726;23.252;2023-10-19T09:06:02;95128.88;;;16.10;47.47
9261;BME280;4667;42.726;23.252;2023-10-19T09:08:31;95189.19;;;16.62;47.79
9261;BME280;4667;42.726;23.252;2023-10-19T09:11:06;94986.31;;;15.42;46.85
9261;BME280;4667;42.726;23.252;2023-10-19T09:13:43;95204.78;;;17.12;46.51
9261;BME280;4667;42.726;23.252;2023-10-19T09:16:13;95207.00;;;17.42;45.75
9261;BME280;4667;42.726;23.252;2023-10-19T09:18:41;95188.88;;;17.58;44.76
9261;BME280;4667;42.726;23.252;2023-10-19T09:21:09;95203.72;;;17.64;45.50
9261;BME280;4667;42.726;23.252;2023-10-19T09:23:38;95197.97;;;17.90;44.68
9261;BME280;4667;42.726;23.252;2023-10-19T09:26:05;95024.13;;;17.41;43.67
9261;BME280;4667;42.726;23.252;2023-10-19T09:28:37;95190.03;;;19.09;42.09
9261;BME280;4667;42.726;23.252;2023-10-19T09:31:04;95187.88;;;19.56;41.09
9261;BME280;4667;42.726;23.252;2023-10-19T09:33:35;95149.94;;;20.07;39.65
9261;BME280;4667;42.726;23.252;2023-10-19T09:36:03;95172.22;;;20.91;38.21
9261;BME280;4667;42.726;23.252;2023-10-19T09:38:43;94987.72;;;20.06;37.02
9261;BME280;4667;42.726;23.252;2023-10-19T09:41:13;95066.50;;;20.22;37.87
9261;BME280;4667;42.726;23.252;2023-10-19T09:43:43;94840.81;;;19.04;37.31
9261;BME280;4667;42.726;23.252;2023-10-19T09:46:12;94968.97;;;19.49;38.05
9261;BME280;4667;42.726;23.252;2023-10-19T09:48:40;94934.63;;;19.34;38.36
9261;BME280;4667;42.726;23.252;2023-10-19T09:51:09;94937.97;;;19.48;37.74
9261;BME280;4667;42.726;23.252;2023-10-19T09:53:39;95056.44;;;20.45;37.38
9261;BME280;4667;42.726;23.252;2023-10-19T09:56:12;95060.13;;;20.58;36.64
9261;BME280;4667;42.726;23.252;2023-10-19T09:58:44;95048.59;;;20.66;36.74
9261;BME280;4667;42.726;23.252;2023-10-19T10:01:13;95038.53;;;20.81;36.59
9261;BME280;4667;42.726;23.252;2023-10-19T10:03:47;95159.25;;;21.79;36.08
9261;BME280;4667;42.726;23.252;2023-10-19T10:06:18;95072.44;;;22.05;35.53
9261;BME280;4667;42.726;23.252;2023-10-19T10:08:55;94837.44;;;21.36;33.41
9261;BME280;4667;42.726;23.252;2023-10-19T10:11:23;95120.59;;;23.53;32.55
9261;BME280;4667;42.726;23.252;2023-10-19T10:13:53;95049.03;;;23.40;31.61
9261;BME280;4667;42.726;23.252;2023-10-19T10:16:22;95130.00;;;24.50;31.36
9261;BME280;4667;42.726;23.252;2023-10-19T10:18:51;94964.19;;;23.79;29.81
9261;BME280;4667;42.726;23.252;2023-10-19T10:21:21;95062.50;;;25.27;28.59
9261;BME280;4667;42.726;23.252;2023-10-19T10:23:51;95112.03;;;25.90;28.44
9261;BME280;4667;42.726;23.252;2023-10-19T10:26:21;95106.44;;;26.15;28.08
9261;BME280;4667;42.726;23.252;2023-10-19T10:29:08;95103.47;;;26.20;28.40
9261;BME280;4667;42.726;23.252;2023-10-19T10:31:41;95099.97;;;26.51;27.41
9261;BME280;4667;42.726;23.252;2023-10-19T10:34:09;95090.19;;;26.82;27.38
9261;BME280;4667;42.726;23.252;2023-10-19T10:36:57;95079.91;;;27.07;27.35
9261;BME280;4667;42.726;23.252;2023-10-19T10:39:25;95083.53;;;27.53;25.87
9261;BME280;4667;42.726;23.252;2023-10-19T10:41:56;94956.59;;;26.67;27.22
9261;BME280;4667;42.726;23.252;2023-10-19T10:44:37;95007.03;;;27.17;26.32
9261;BME280;4667;42.726;23.252;2023-10-19T10:47:06;94924.94;;;26.71;26.34
9261;BME280;4667;42.726;23.252;2023-10-19T10:49:45;95052.56;;;27.73;25.19
9261;BME280;4667;42.726;23.252;2023-10-19T10:52:12;95055.28;;;27.96;25.76
9261;BME280;4667;42.726;23.252;2023-10-19T10:54:39;94984.63;;;26.98;25.49
9261;BME280;4667;42.726;23.252;2023-10-19T10:57:07;94996.97;;;27.83;25.57
9261;BME280;4667;42.726;23.252;2023-10-19T10:59:34;94885.59;;;26.74;25.66
9261;BME280;4667;42.726;23.252;2023-10-19T11:02:01;95027.88;;;27.79;25.43
9261;BME280;4667;42.726;23.252;2023-10-19T11:04:43;94930.06;;;26.95;25.69
9261;BME280;4667;42.726;23.252;2023-10-19T11:07:17;94862.91;;;26.39;26.41
9261;BME280;4667;42.726;23.252;2023-10-19T11:09:45;94987.97;;;27.76;25.75
9261;BME280;4667;42.726;23.252;2023-10-19T11:12:14;95019.69;;;28.24;25.49
9261;BME280;4667;42.726;23.252;2023-10-19T11:14:52;94923.47;;;27.62;25.44
9261;BME280;4667;42.726;23.252;2023-10-19T11:17:19;95015.09;;;28.29;25.01
9261;BME280;4667;42.726;23.252;2023-10-19T11:19:49;95006.81;;;28.44;25.11
9261;BME280;4667;42.726;23.252;2023-10-19T11:22:16;94936.22;;;27.61;25.36
9261;BME280;4667;42.726;23.252;2023-10-19T11:24:43;94996.81;;;28.22;24.99
9261;BME280;4667;42.726;23.252;2023-10-19T11:27:09;94942.13;;;28.16;25.14
9261;BME280;4667;42.726;23.252;2023-10-19T11:29:39;94945.72;;;27.97;24.42
9261;BME280;4667;42.726;23.252;2023-10-19T11:32:05;95002.06;;;28.11;24.75
9261;BME280;4667;42.726;23.252;2023-10-19T11:34:32;94894.91;;;27.41;24.94
9261;BME280;4667;42.726;23.252;2023-10-19T11:37:00;94926.13;;;27.81;25.15
9261;BME280;4667;42.726;23.252;2023-10-19T11:39:28;94985.97;;;27.95;25.15
9261;BME280;4667;42.726;23.252;2023-10-19T11:41:56;94975.31;;;27.83;25.04
9261;BME280;4667;42.726;23.252;2023-10-19T11:44:23;94805.81;;;26.87;25.38
9261;BME280;4667;42.726;23.252;2023-10-19T11:46:51;94976.72;;;28.27;24.73
9261;BME280;4667;42.726;23.252;2023-10-19T11:49:18;94899.75;;;27.78;25.30
9261;BME280;4667;42.726;23.252;2023-10-19T11:51:46;94947.50;;;27.86;25.17
9261;BME280;4667;42.726;23.252;2023-10-19T11:54:13;94900.97;;;27.84;24.49
9261;BME280;4667;42.726;23.252;2023-10-19T11:56:40;94798.06;;;26.62;25.26
9261;BME280;4667;42.726;23.252;2023-10-19T11:59:07;94914.16;;;27.36;25.16
9261;BME280;4667;42.726;23.252;2023-10-19T12:01:34;94893.31;;;27.14;25.02
9261;BME280;4667;42.726;23.252;2023-10-19T12:04:02;94875.25;;;27.02;25.44
9261;BME280;4667;42.726;23.252;2023-10-19T12:06:31;94897.97;;;27.40;25.46
9261;BME280;4667;42.726;23.252;2023-10-19T12:08:58;94757.75;;;26.54;25.67
9261;BME280;4667;42.726;23.252;2023-10-19T12:11:31;94815.09;;;27.09;25.26
9261;BME280;4667;42.726;23.252;2023-10-19T12:13:58;94733.34;;;26.73;24.95
9261;BME280;4667;42.726;23.252;2023-10-19T12:16:29;94829.69;;;27.27;25.53
9261;BME280;4667;42.726;23.252;2023-10-19T12:18:57;94849.94;;;27.86;25.05
9261;BME280;4667;42.726;23.252;2023-10-19T12:21:25;94943.84;;;28.58;24.69
9261;BME280;4667;42.726;23.252;2023-10-19T12:23:56;94896.88;;;28.24;24.99
9261;BME280;4667;42.726;23.252;2023-10-19T12:26:25;94852.53;;;28.09;24.49
9261;BME280;4667;42.726;23.252;2023-10-19T12:28:51;94934.75;;;28.77;24.42
9261;BME280;4667;42.726;23.252;2023-10-19T12:31:18;94921.41;;;28.61;24.67
9261;BME280;4667;42.726;23.252;2023-10-19T12:33:47;94918.97;;;28.53;24.76
9261;BME280;4667;42.726;23.252;2023-10-19T12:36:14;94880.22;;;28.56;24.40
9261;BME280;4667;42.726;23.252;2023-10-19T12:38:58;94764.47;;;27.66;24.46
9261;BME280;4667;42.726;23.252;2023-10-19T12:41:25;94907.81;;;28.95;24.57
9261;BME280;4667;42.726;23.252;2023-10-19T12:43:52;94873.41;;;29.03;24.15
9261;BME280;4667;42.726;23.252;2023-10-19T12:46:22;94915.56;;;29.34;23.45
9261;BME280;4667;42.726;23.252;2023-10-19T12:48:50;94870.84;;;28.87;23.76
9261;BME280;4667;42.726;23.252;2023-10-19T12:51:17;94902.91;;;29.08;23.68
9261;BME280;4667;42.726;23.252;2023-10-19T12:53:48;94903.09;;;28.92;24.31
9261;BME280;4667;42.726;23.252;2023-10-19T12:56:18;94914.91;;;29.07;24.24
9261;BME280;4667;42.726;23.252;2023-10-19T12:58:45;94903.22;;;28.99;23.88
9261;BME280;4667;42.726;23.252;2023-10-19T13:01:13;94911.72;;;28.64;24.07
9261;BME280;4667;42.726;23.252;2023-10-19T13:03:43;94893.38;;;28.23;25.04
9261;BME280;4667;42.726;23.252;2023-10-19T13:06:12;94892.16;;;28.47;25.06
9261;BME280;4667;42.726;23.252;2023-10-19T13:08:39;94892.50;;;28.42;24.91
9261;BME280;4667;42.726;23.252;2023-10-19T13:11:06;94879.25;;;28.07;24.60
9261;BME280;4667;42.726;23.252;2023-10-19T13:13:35;94855.66;;;27.81;24.89
9261;BME280;4667;42.726;23.252;2023-10-19T13:16:04;94887.59;;;27.19;25.67
9261;BME280;4667;42.726;23.252;2023-10-19T13:18:31;94832.34;;;27.24;25.94
9261;BME280;4667;42.726;23.252;2023-10-19T13:20:59;94877.72;;;27.57;26.60
9261;BME280;4667;42.726;23.252;2023-10-19T13:23:30;94867.41;;;27.66;26.15
9261;BME280;4667;42.726;23.252;2023-10-19T13:25:58;94860.00;;;27.89;25.11
9261;BME280;4667;42.726;23.252;2023-10-19T13:28:35;94858.88;;;28.20;25.86
9261;BME280;4667;42.726;23.252;2023-10-19T13:31:03;94844.84;;;28.11;25.65
9261;BME280;4667;42.726;23.252;2023-10-19T13:33:30;94852.34;;;28.25;25.17
9261;BME280;4667;42.726;23.252;2023-10-19T13:35:57;94853.41;;;27.60;25.95
9261;BME280;4667;42.726;23.252;2023-10-19T13:38:24;94845.56;;;27.06;26.83
9261;BME280;4667;42.726;23.252;2023-10-19T13:40:51;94843.00;;;26.48;27.49
9261;BME280;4667;42.726;23.252;2023-10-19T13:43:19;94834.88;;;26.28;27.68
9261;BME280;4667;42.726;23.252;2023-10-19T13:45:48;94829.06;;;26.07;27.99
9261;BME280;4667;42.726;23.252;2023-10-19T13:48:18;94829.47;;;25.74;29.35
9261;BME280;4667;42.726;23.252;2023-10-19T13:50:46;94828.13;;;25.64;29.06
9261;BME280;4667;42.726;23.252;2023-10-19T13:53:14;94835.53;;;25.16;29.85
9261;BME280;4667;42.726;23.252;2023-10-19T13:55:41;94823.28;;;24.43;30.51
9261;BME280;4667;42.726;23.252;2023-10-19T13:58:08;94826.81;;;24.19;31.04
9261;BME280;4667;42.726;23.252;2023-10-19T14:00:36;94819.78;;;24.15;31.57
9261;BME280;4667;42.726;23.252;2023-10-19T14:03:08;94815.53;;;23.73;32.05
9261;BME280;4667;42.726;23.252;2023-10-19T14:05:39;94828.69;;;23.01;33.29
9261;BME280;4667;42.726;23.252;2023-10-19T14:08:08;94708.44;;;22.16;33.65
9261;BME280;4667;42.726;23.252;2023-10-19T14:10:36;94808.59;;;22.87;34.07
9261;BME280;4667;42.726;23.252;2023-10-19T14:13:07;94554.09;;;21.32;34.26
9261;BME280;4667;42.726;23.252;2023-10-19T14:15:34;94811.19;;;22.83;34.06
9261;BME280;4667;42.726;23.252;2023-10-19T14:18:02;94793.81;;;22.68;34.55
9261;BME280;4667;42.726;23.252;2023-10-19T14:20:31;94702.28;;;22.28;34.47
9261;BME280;4667;42.726;23.252;2023-10-19T14:23:00;94779.50;;;23.01;34.18
9261;BME280;4667;42.726;23.252;2023-10-19T14:25:28;94767.41;;;23.19;33.52
9261;BME280;4667;42.726;23.252;2023-10-19T14:27:56;94765.72;;;23.15;33.67
9261;BME280;4667;42.726;23.252;2023-10-19T14:30:26;94776.06;;;22.88;33.88
9261;BME280;4667;42.726;23.252;2023-10-19T14:32:54;94597.94;;;21.48;34.43
9261;BME280;4667;42.726;23.252;2023-10-19T14:35:22;94780.47;;;22.60;34.08
9261;BME280;4667;42.726;23.252;2023-10-19T14:37:53;94645.53;;;21.72;34.36
9261;BME280;4667;42.726;23.252;2023-10-19T14:40:22;94709.81;;;21.68;34.89
9261;BME280;4667;42.726;23.252;2023-10-19T14:42:50;94799.22;;;22.35;34.70
9261;BME280;4667;42.726;23.252;2023-10-19T14:45:20;94489.25;;;20.21;35.65
9261;BME280;4667;42.726;23.252;2023-10-19T14:47:51;94808.13;;;21.94;35.48
9261;BME280;4667;42.726;23.252;2023-10-19T14:50:20;94805.00;;;21.92;36.00
9261;BME280;4667;42.726;23.252;2023-10-19T14:52:49;94658.28;;;20.79;36.19
9261;BME280;4667;42.726;23.252;2023-10-19T14:55:18;94796.41;;;21.36;36.97
9261;BME280;4667;42.726;23.252;2023-10-19T14:57:51;94636.69;;;20.16;37.09
9261;BME280;4667;42.726;23.252;2023-10-19T15:00:20;94805.84;;;21.03;38.36
9261;BME280;4667;42.726;23.252;2023-10-19T15:03:05;94820.06;;;21.04;38.54
9261;BME280;4667;42.726;23.252;2023-10-19T15:05:34;94550.31;;;18.87;38.46
9261;BME280;4667;42.726;23.252;2023-10-19T15:14:55;94605.00;;;19.16;39.20
9261;BME280;4667;42.726;23.252;2023-10-19T15:17:46;94685.31;;;19.71;40.15
9261;BME280;4667;42.726;23.252;2023-10-19T15:20:15;94655.63;;;19.30;41.06
9261;BME280;4667;42.726;23.252;2023-10-19T15:22:42;94740.41;;;19.55;41.50
9261;BME280;4667;42.726;23.252;2023-10-19T15:25:10;94804.13;;;19.88;42.62
9261;BME280;4667;42.726;23.252;2023-10-19T15:27:39;94777.84;;;19.72;42.50
9261;BME280;4667;42.726;23.252;2023-10-19T15:30:10;94807.13;;;19.86;42.71
9261;BME280;4667;42.726;23.252;2023-10-19T15:32:38;94814.38;;;19.68;42.46
9261;BME280;4667;42.726;23.252;2023-10-19T15:35:09;94745.72;;;19.12;43.09
9261;BME280;4667;42.726;23.252;2023-10-19T15:37:37;94641.34;;;18.34;43.93
9261;BME280;4667;42.726;23.252;2023-10-19T15:40:05;94777.03;;;19.20;44.58
9261;BME280;4667;42.726;23.252;2023-10-19T15:42:32;94744.22;;;18.80;44.94
9261;BME280;4667;42.726;23.252;2023-10-19T15:45:02;94721.38;;;18.25;46.27
9261;BME280;4667;42.726;23.252;2023-10-19T15:47:33;94711.50;;;18.26;45.04
9261;BME280;4667;42.726;23.252;2023-10-19T15:50:00;94712.78;;;17.97;46.08
9261;BME280;4667;42.726;23.252;2023-10-19T15:52:28;94810.25;;;18.48;46.08
9261;BME280;4667;42.726;23.252;2023-10-19T15:54:58;94631.69;;;17.22;45.58
9261;BME280;4667;42.726;23.252;2023-10-19T15:57:25;94651.47;;;17.52;45.19
9261;BME280;4667;42.726;23.252;2023-10-19T15:59:52;94781.41;;;18.36;45.05
9261;BME280;4667;42.726;23.252;2023-10-19T16:02:20;94802.50;;;18.47;45.38
9261;BME280;4667;42.726;23.252;2023-10-19T16:04:50;94764.59;;;18.05;45.90
9261;BME280;4667;42.726;23.252;2023-10-19T16:07:18;94784.84;;;18.28;46.29
9261;BME280;4667;42.726;23.252;2023-10-19T16:09:45;94777.69;;;18.46;46.06
9261;BME280;4667;42.726;23.252;2023-10-19T16:12:12;94685.25;;;17.65;45.26
9261;BME280;4667;42.726;23.252;2023-10-19T16:14:42;94688.06;;;17.83;44.98
9261;BME280;4667;42.726;23.252;2023-10-19T16:17:09;94799.44;;;18.62;44.83
9261;BME280;4667;42.726;23.252;2023-10-19T16:19:39;94718.47;;;18.04;44.68
9261;BME280;4667;42.726;23.252;2023-10-19T16:22:07;94725.88;;;18.07;45.08
9261;BME280;4667;42.726;23.252;2023-10-19T16:24:34;94793.63;;;18.60;44.38
9261;BME280;4667;42.726;23.252;2023-10-19T16:27:01;94744.03;;;18.28;45.24
9261;BME280;4667;42.726;23.252;2023-10-19T16:29:28;94703.94;;;17.88;45.18
9261;BME280;4667;42.726;23.252;2023-10-19T16:31:55;94762.19;;;18.17;46.36
9261;BME280;4667;42.726;23.252;2023-10-19T16:34:25;94614.28;;;17.25;46.40
9261;BME280;4667;42.726;23.252;2023-10-19T16:36:52;94650.19;;;17.50;45.78
9261;BME280;4667;42.726;23.252;2023-10-19T16:39:20;94670.50;;;17.37;46.40
9261;BME280;4667;42.726;23.252;2023-10-19T16:41:48;94768.31;;;18.17;46.68
9261;BME280;4667;42.726;23.252;2023-10-19T16:44:16;94604.69;;;17.15;46.25
9261;BME280;4667;42.726;23.252;2023-10-19T16:46:43;94602.50;;;16.95;47.64
9261;BME280;4667;42.726;23.252;2023-10-19T16:49:11;94562.31;;;16.69;47.78
9261;BME280;4667;42.726;23.252;2023-10-19T16:51:40;94703.75;;;17.62;46.75
9261;BME280;4667;42.726;23.252;2023-10-19T16:54:09;94820.34;;;18.29;46.30
9261;BME280;4667;42.726;23.252;2023-10-19T16:56:40;94573.50;;;16.57;46.89
9261;BME280;4667;42.726;23.252;2023-10-19T16:59:13;94675.03;;;17.14;47.29
9261;BME280;4667;42.726;23.252;2023-10-19T17:01:41;94743.63;;;17.45;46.97
9261;BME280;4667;42.726;23.252;2023-10-19T17:04:09;94746.41;;;17.39;46.74
9261;BME280;4667;42.726;23.252;2023-10-19T17:06:43;94824.22;;;17.78;47.23
9261;BME280;4667;42.726;23.252;2023-10-19T17:09:14;94704.38;;;17.00;46.69
9261;BME280;4667;42.726;23.252;2023-10-19T17:11:45;94764.03;;;17.27;46.40
9261;BME280;4667;42.726;23.252;2023-10-19T17:14:12;94841.75;;;17.56;46.53
9261;BME280;4667;42.726;23.252;2023-10-19T17:16:39;94829.13;;;17.48;46.51
9261;BME280;4667;42.726;23.252;2023-10-19T17:19:06;94765.47;;;16.97;46.98
9261;BME280;4667;42.726;23.252;2023-10-19T17:21:36;94758.25;;;16.97;46.72
9261;BME280;4667;42.726;23.252;2023-10-19T17:24:04;94755.69;;;16.92;47.13
9261;BME280;4667;42.726;23.252;2023-10-19T17:26:31;94867.25;;;17.35;48.04
9261;BME280;4667;42.726;23.252;2023-10-19T17:29:00;94853.91;;;17.35;48.46
9261;BME280;4667;42.726;23.252;2023-10-19T17:31:27;94870.13;;;17.25;48.42
9261;BME280;4667;42.726;23.252;2023-10-19T17:34:00;94765.25;;;16.38;49.07
9261;BME280;4667;42.726;23.252;2023-10-19T17:36:27;94764.34;;;16.43;49.25
9261;BME280;4667;42.726;23.252;2023-10-19T17:38:54;94858.31;;;16.89;49.30
9261;BME280;4667;42.726;23.252;2023-10-19T17:41:23;94717.78;;;15.85;49.75
9261;BME280;4667;42.726;23.252;2023-10-19T17:43:55;94861.94;;;16.80;49.13
9261;BME280;4667;42.726;23.252;2023-10-19T17:46:24;94797.56;;;16.18;49.90
9261;BME280;4667;42.726;23.252;2023-10-19T17:48:52;94875.59;;;16.59;50.44
9261;BME280;4667;42.726;23.252;2023-10-19T17:51:20;94889.88;;;16.50;50.67
9261;BME280;4667;42.726;23.252;2023-10-19T17:53:47;94892.16;;;16.56;50.42
9261;BME280;4667;42.726;23.252;2023-10-19T17:56:14;94880.31;;;16.49;50.42
9261;BME280;4667;42.726;23.252;2023-10-19T17:58:43;94840.94;;;15.99;51.04
9261;BME280;4667;42.726;23.252;2023-10-19T18:01:10;94764.59;;;15.48;50.75
9261;BME280;4667;42.726;23.252;2023-10-19T18:03:41;94775.72;;;15.69;50.53
9261;BME280;4667;42.726;23.252;2023-10-19T18:06:11;94793.09;;;15.80;50.30
9261;BME280;4667;42.726;23.252;2023-10-19T18:08:40;94649.19;;;14.84;50.32
9261;BME280;4667;42.726;23.252;2023-10-19T18:11:10;94867.78;;;16.17;50.52
9261;BME280;4667;42.726;23.252;2023-10-19T18:13:41;94823.13;;;15.81;51.07
9261;BME280;4667;42.726;23.252;2023-10-19T18:16:10;94896.47;;;16.20;51.34
9261;BME280;4667;42.726;23.252;2023-10-19T18:18:40;94812.25;;;15.64;51.52
9261;BME280;4667;42.726;23.252;2023-10-19T18:21:14;94903.00;;;16.27;50.98
9261;BME280;4667;42.726;23.252;2023-10-19T18:23:52;94849.88;;;15.71;51.92
9261;BME280;4667;42.726;23.252;2023-10-19T18:26:23;94788.66;;;15.38;51.58
9261;BME280;4667;42.726;23.252;2023-10-19T18:28:56;94796.56;;;15.43;51.82
9261;BME280;4667;42.726;23.252;2023-10-19T18:31:37;94810.63;;;15.63;51.32
9261;BME280;4667;42.726;23.252;2023-10-19T18:34:06;94823.50;;;15.74;51.76
9261;BME280;4667;42.726;23.252;2023-10-19T18:36:35;94783.41;;;15.52;51.15
9261;BME280;4667;42.726;23.252;2023-10-19T18:39:02;94886.78;;;16.10;50.94
9261;BME280;4667;42.726;23.252;2023-10-19T18:41:31;94917.13;;;16.28;50.62
9261;BME280;4667;42.726;23.252;2023-10-19T18:43:58;94839.81;;;15.68;51.00
9261;BME280;4667;42.726;23.252;2023-10-19T18:46:27;94883.97;;;16.01;51.38
9261;BME280;4667;42.726;23.252;2023-10-19T18:48:56;94883.50;;;15.99;51.80
9261;BME280;4667;42.726;23.252;2023-10-19T18:51:26;94879.38;;;16.07;52.30
9261;BME280;4667;42.726;23.252;2023-10-19T18:53:55;94746.03;;;15.11;52.19
9261;BME280;4667;42.726;23.252;2023-10-19T18:56:25;94830.88;;;15.58;52.46
9261;BME280;4667;42.726;23.252;2023-10-19T18:58:54;94868.00;;;15.69;52.89
9261;BME280;4667;42.726;23.252;2023-10-19T19:01:21;94842.81;;;15.61;53.14
9261;BME280;4667;42.726;23.252;2023-10-19T19:03:52;94921.78;;;16.17;53.44
9261;BME280;4667;42.726;23.252;2023-10-19T19:06:19;94817.59;;;15.40;53.06
9261;BME280;4667;42.726;23.252;2023-10-19T19:08:49;94933.81;;;16.15;53.37
9261;BME280;4667;42.726;23.252;2023-10-19T19:11:17;94830.97;;;15.53;53.54
9261;BME280;4667;42.726;23.252;2023-10-19T19:13:44;94837.50;;;15.42;53.58
9261;BME280;4667;42.726;23.252;2023-10-19T19:16:12;94661.94;;;14.44;53.40
9261;BME280;4667;42.726;23.252;2023-10-19T19:18:41;94842.78;;;15.66;53.07
9261;BME280;4667;42.726;23.252;2023-10-19T19:21:09;94844.91;;;15.64;53.43
9261;BME280;4667;42.726;23.252;2023-10-19T19:23:36;94781.06;;;15.31;52.90
9261;BME280;4667;42.726;23.252;2023-10-19T19:26:06;94820.78;;;15.42;52.96
9261;BME280;4667;42.726;23.252;2023-10-19T19:28:36;94834.78;;;15.47;52.39
9261;BME280;4667;42.726;23.252;2023-10-19T19:31:05;94866.59;;;15.71;53.35
9261;BME280;4667;42.726;23.252;2023-10-19T19:33:32;94797.50;;;15.33;53.48
9261;BME280;4667;42.726;23.252;2023-10-19T19:35:59;94669.09;;;14.44;53.11
9261;BME280;4667;42.726;23.252;2023-10-19T19:38:27;94745.06;;;14.82;53.25
9261;BME280;4667;42.726;23.252;2023-10-19T19:41:00;94751.88;;;14.89;53.65
9261;BME280;4667;42.726;23.252;2023-10-19T19:43:30;94857.03;;;15.32;54.74
9261;BME280;4667;42.726;23.252;2023-10-19T19:45:57;94899.09;;;15.68;54.27
9261;BME280;4667;42.726;23.252;2023-10-19T19:48:24;94907.69;;;15.41;53.91
9261;BME280;4667;42.726;23.252;2023-10-19T19:50:52;94782.22;;;14.59;54.02
9261;BME280;4667;42.726;23.252;2023-10-19T19:53:21;94908.13;;;15.24;55.43
9261;BME280;4667;42.726;23.252;2023-10-19T19:55:50;94753.03;;;14.35;54.72
9261;BME280;4667;42.726;23.252;2023-10-19T19:58:18;94834.41;;;14.68;54.64
9261;BME280;4667;42.726;23.252;2023-10-19T20:00:47;94729.78;;;14.02;55.00
9261;BME280;4667;42.726;23.252;2023-10-19T20:03:14;94901.16;;;15.28;54.73
9261;BME280;4667;42.726;23.252;2023-10-19T20:05:41;94620.78;;;13.27;55.58
9261;BME280;4667;42.726;23.252;2023-10-19T20:08:09;94914.91;;;15.12;55.86
9261;BME280;4667;42.726;23.252;2023-10-19T20:10:38;94813.34;;;14.53;55.33
9261;BME280;4667;42.726;23.252;2023-10-19T20:13:06;94807.31;;;14.42;55.79
9261;BME280;4667;42.726;23.252;2023-10-19T20:15:34;94819.16;;;14.26;56.64
9261;BME280;4667;42.726;23.252;2023-10-19T20:18:03;94900.50;;;14.94;56.11
9261;BME280;4667;42.726;23.252;2023-10-19T20:20:30;94892.59;;;14.89;56.08
9261;BME280;4667;42.726;23.252;2023-10-19T20:22:58;94700.34;;;13.41;57.18
9261;BME280;4667;42.726;23.252;2023-10-19T20:25:26;94781.03;;;13.93;57.21
9261;BME280;4667;42.726;23.252;2023-10-19T20:27:53;94603.06;;;12.83;56.47
9261;BME280;4667;42.726;23.252;2023-10-19T20:30:21;94888.91;;;14.61;56.94
9261;BME280;4667;42.726;23.252;2023-10-19T20:32:50;94891.59;;;14.55;57.17
9261;BME280;4667;42.726;23.252;2023-10-19T20:35:19;94832.72;;;13.90;57.42
9261;BME280;4667;42.726;23.252;2023-10-19T20:37:46;94730.34;;;13.36;57.32
9261;BME280;4667;42.726;23.252;2023-10-19T20:40:14;94835.78;;;14.08;57.53
9261;BME280;4667;42.726;23.252;2023-10-19T20:42:47;94890.97;;;14.35;57.81
9261;BME280;4667;42.726;23.252;2023-10-19T20:45:15;94885.03;;;14.48;57.14
9261;BME280;4667;42.726;23.252;2023-10-19T20:47:45;94791.13;;;13.86;56.70
9261;BME280;4667;42.726;23.252;2023-10-19T20:50:15;94845.72;;;14.21;56.86
9261;BME280;4667;42.726;23.252;2023-10-19T20:52:45;94871.53;;;14.44;57.10
9261;BME280;4667;42.726;23.252;2023-10-19T20:55:12;94827.38;;;13.95;57.70
9261;BME280;4667;42.726;23.252;2023-10-19T20:57:39;94789.06;;;13.83;57.28
9261;BME280;4667;42.726;23.252;2023-10-19T21:00:07;94875.06;;;14.35;56.94
9261;BME280;4667;42.726;23.252;2023-10-19T21:02:37;94874.44;;;14.14;57.42
9261;BME280;4667;42.726;23.252;2023-10-19T21:05:06;94780.25;;;13.58;57.83
9261;BME280;4667;42.726;23.252;2023-10-19T21:07:37;94876.34;;;14.08;58.21
9261;BME280;4667;42.726;23.252;2023-10-19T21:10:09;94829.69;;;13.73;57.62
9261;BME280;4667;42.726;23.252;2023-10-19T21:12:37;94769.78;;;13.38;57.55
9261;BME280;4667;42.726;23.252;2023-10-19T21:15:07;94774.66;;;13.60;57.29
9261;BME280;4667;42.726;23.252;2023-10-19T21:17:38;94863.09;;;14.08;57.99
9261;BME280;4667;42.726;23.252;2023-10-19T21:20:06;94769.47;;;13.44;58.33
9261;BME280;4667;42.726;23.252;2023-10-19T21:22:34;94857.25;;;14.06;58.05
9261;BME280;4667;42.726;23.252;2023-10-19T21:25:01;94804.28;;;13.67;58.10
9261;BME280;4667;42.726;23.252;2023-10-19T21:27:30;94757.97;;;13.15;58.94